Time;durP1;ratioP1;P1;durP2;ratioP2;P2;SDS_P1;SDS_P2;PMS_P1;PMS_P2;Temp;Humidity;BMP_temperature;BMP_pressure;BME280_temperature;BME280_humidity;BME280_pressure;Samples;Min_cycle;Max_cycle;Signal;HPM_P1;HPM_P2
2023/12/05 00:02:03;;;;;;;19.50;8.93;;;;;;;4.36;79.63;97697.59;4894105;29;20255;-73
2023/12/05 00:04:30;;;;;;;16.77;7.40;;;;;;;4.30;80.29;97705.34;4894313;29;20202;-73
2023/12/05 00:06:57;;;;;;;20.70;8.70;;;;;;;3.85;80.21;97682.75;4893871;29;20211;-73
2023/12/05 00:09:25;;;;;;;20.23;8.13;;;;;;;4.00;80.33;97695.41;4894451;29;20760;-73
2023/12/05 00:11:52;;;;;;;18.17;8.50;;;;;;;4.19;79.24;97696.06;4893606;29;20203;-74
2023/12/05 00:14:19;;;;;;;20.27;9.20;;;;;;;4.21;79.49;97696.91;4895780;29;20240;-75
2023/12/05 00:16:46;;;;;;;19.70;7.87;;;;;;;3.80;80.04;97672.53;4895314;29;20253;-73
2023/12/05 00:19:13;;;;;;;23.40;9.47;;;;;;;4.03;79.98;97678.31;4894317;29;20266;-73
2023/12/05 00:21:40;;;;;;;22.97;9.73;;;;;;;4.21;79.46;97682.38;4893920;29;20199;-75
2023/12/05 00:24:08;;;;;;;20.83;9.03;;;;;;;4.34;79.29;97691.63;4893719;29;20205;-74
2023/12/05 00:26:35;;;;;;;18.97;9.03;;;;;;;4.38;79.13;97688.16;4894009;29;20310;-73
2023/12/05 00:29:02;;;;;;;21.43;9.20;;;;;;;4.61;78.55;97693.91;4893757;29;20711;-74
2023/12/05 00:31:29;;;;;;;20.70;8.90;;;;;;;4.62;78.21;97699.84;4894284;29;20209;-73
2023/12/05 00:33:56;;;;;;;17.90;7.57;;;;;;;4.42;78.37;97692.41;4893446;29;20301;-75
2023/12/05 00:36:23;;;;;;;16.50;7.77;;;;;;;4.52;77.90;97694.00;4893683;29;20203;-75
2023/12/05 00:38:50;;;;;;;16.43;7.53;;;;;;;4.54;77.45;97689.69;4893823;29;20263;-73
2023/12/05 00:41:18;;;;;;;20.57;8.10;;;;;;;4.52;77.50;97678.59;4893406;29;20208;-72
2023/12/05 00:43:45;;;;;;;17.40;8.20;;;;;;;4.60;76.58;97687.06;4893726;29;20270;-72
2023/12/05 00:46:12;;;;;;;17.77;7.90;;;;;;;4.33;77.09;97643.78;4907369;29;20632;-73
2023/12/05 00:48:39;;;;;;;20.37;8.13;;;;;;;4.40;77.67;97676.19;4893841;29;20260;-72
2023/12/05 00:51:07;;;;;;;18.27;8.17;;;;;;;4.42;77.62;97682.16;4892880;29;20196;-74
2023/12/05 00:53:34;;;;;;;18.70;8.57;;;;;;;4.49;78.12;97690.63;4893557;29;20230;-70
2023/12/05 00:56:01;;;;;;;23.63;9.30;;;;;;;4.46;78.00;97683.81;4892968;29;20222;-71
2023/12/05 00:58:28;;;;;;;21.50;8.53;;;;;;;4.61;77.85;97683.63;4893150;29;20288;-70
2023/12/05 01:00:55;;;;;;;17.10;7.70;;;;;;;4.59;77.22;97679.38;4893471;29;20207;-72
2023/12/05 01:03:22;;;;;;;19.17;8.53;;;;;;;4.79;77.50;97682.53;4891604;29;20315;-72
2023/12/05 01:05:49;;;;;;;18.83;7.50;;;;;;;4.69;76.76;97663.00;4893829;29;20189;-72
2023/12/05 01:08:17;;;;;;;15.50;7.47;;;;;;;4.68;76.07;97672.41;4892632;29;20208;-73
2023/12/05 01:10:44;;;;;;;23.97;10.13;;;;;;;4.73;76.37;97673.22;4894140;29;20641;-73
2023/12/05 01:13:12;;;;;;;14.27;7.83;;;;;;;4.76;76.60;97662.91;4893413;29;20281;-71
2023/12/05 01:15:39;;;;;;;22.73;9.57;;;;;;;4.84;75.50;97665.38;4891261;29;20204;-74
2023/12/05 01:18:06;;;;;;;19.53;8.40;;;;;;;4.83;75.62;97656.84;4892258;29;20215;-74
2023/12/05 01:20:33;;;;;;;18.60;8.93;;;;;;;4.69;76.53;97647.63;4892119;29;20254;-73
2023/12/05 01:23:00;;;;;;;19.07;8.03;;;;;;;4.50;76.96;97644.44;4893027;29;20227;-72
2023/12/05 01:25:27;;;;;;;19.97;8.27;;;;;;;4.52;77.39;97637.56;4891742;29;20198;-73
2023/12/05 01:27:55;;;;;;;17.60;8.10;;;;;;;4.43;77.37;97627.41;4906934;29;20297;-74
2023/12/05 01:30:22;;;;;;;18.23;8.30;;;;;;;4.39;77.39;97641.13;4906291;29;20700;-74
2023/12/05 01:32:49;;;;;;;17.77;8.10;;;;;;;4.42;77.32;97643.69;4892532;29;20903;-74
2023/12/05 01:35:16;;;;;;;18.57;8.17;;;;;;;4.55;77.76;97629.84;4892735;29;20706;-76
2023/12/05 01:37:43;;;;;;;18.70;8.83;;;;;;;4.59;77.02;97644.34;4892485;29;20207;-75
2023/12/05 01:40:11;;;;;;;17.07;8.07;;;;;;;4.58;77.61;97622.09;4892673;29;20699;-74
2023/12/05 01:42:38;;;;;;;17.43;8.27;;;;;;;4.70;76.48;97621.09;4891674;29;20942;-72
2023/12/05 01:45:07;;;;;;;19.80;9.03;;;;;;;4.60;77.34;97622.06;4891559;29;20296;-75
2023/12/05 01:47:39;;;;;;;18.90;8.77;;;;;;;4.53;77.88;97621.34;4906294;29;20203;-75
2023/12/05 01:50:27;;;;;;;20.10;8.60;;;;;;;4.52;77.87;97618.75;4892386;29;20589;-73
2023/12/05 01:52:59;;;;;;;21.80;9.10;;;;;;;4.53;78.16;97613.63;4892301;29;20276;-71
2023/12/05 01:55:28;;;;;;;19.73;9.13;;;;;;;3.84;79.01;97561.50;4891705;29;20287;-69
2023/12/05 01:57:56;;;;;;;22.63;9.87;;;;;;;4.28;79.37;97609.69;4892479;29;20340;-71
2023/12/05 02:00:25;;;;;;;21.10;8.97;;;;;;;4.17;79.60;97602.97;4891258;29;20690;-70
2023/12/05 02:02:55;;;;;;;22.57;9.97;;;;;;;4.18;80.37;97597.84;4891658;29;20329;-73
2023/12/05 02:05:24;;;;;;;25.27;9.73;;;;;;;4.32;79.68;97580.56;4891352;29;20232;-73
2023/12/05 02:07:51;;;;;;;24.17;10.37;;;;;;;4.24;80.38;97577.25;4893433;29;20214;-70
2023/12/05 02:10:18;;;;;;;23.23;9.83;;;;;;;4.19;81.44;97596.97;4892183;29;20302;-69
2023/12/05 02:12:46;;;;;;;25.53;11.10;;;;;;;4.42;81.53;97594.97;4890060;29;20219;-74
2023/12/05 02:15:14;;;;;;;19.13;9.40;;;;;;;4.53;80.99;97587.13;4892248;29;20370;-73
2023/12/05 02:18:10;;;;;;;22.97;10.40;;;;;;;4.28;82.25;97584.03;4891122;29;20770;-73
2023/12/05 02:20:50;;;;;;;24.63;11.27;;;;;;;4.39;81.22;97589.88;4891340;29;20187;-73
2023/12/05 02:23:29;;;;;;;21.27;9.67;;;;;;;4.12;83.27;97587.66;4891830;29;21117;-72
2023/12/05 02:26:18;;;;;;;23.17;10.03;;;;;;;4.21;83.34;97586.69;4890989;29;20749;-73
2023/12/05 02:28:45;;;;;;;23.87;10.00;;;;;;;4.22;83.68;97585.81;4891834;29;20278;-72
2023/12/05 02:31:14;;;;;;;20.63;9.03;;;;;;;4.25;83.40;97571.25;4891221;29;20702;-72
2023/12/05 02:33:41;;;;;;;21.40;9.33;;;;;;;4.00;81.98;97523.72;4891294;29;20255;-71
2023/12/05 02:36:19;;;;;;;21.33;9.70;;;;;;;4.33;82.00;97558.34;4891269;29;20211;-71
2023/12/05 02:39:09;;;;;;;21.43;10.03;;;;;;;4.15;82.95;97561.97;4889624;29;20302;-70
2023/12/05 02:41:41;;;;;;;21.83;9.67;;;;;;;3.91;83.68;97540.09;4891596;29;20537;-70
2023/12/05 02:44:14;;;;;;;18.80;9.20;;;;;;;3.97;85.31;97562.22;4891089;29;20736;-70
2023/12/05 02:46:43;;;;;;;21.50;9.03;;;;;;;3.66;85.30;97541.22;4905561;29;20206;-72
2023/12/05 02:49:11;;;;;;;20.33;8.30;;;;;;;3.89;85.19;97561.44;4891527;29;20250;-70
2023/12/05 02:51:40;;;;;;;23.73;8.93;;;;;;;3.77;85.68;97557.28;4890720;29;20593;-70
2023/12/05 02:54:07;;;;;;;20.87;8.33;;;;;;;3.73;86.55;97549.69;4891693;29;20206;-70
2023/12/05 02:56:38;;;;;;;18.27;7.47;;;;;;;3.60;87.09;97530.19;4890925;29;20544;-70
2023/12/05 02:59:05;;;;;;;23.20;10.10;;;;;;;3.79;87.49;97549.63;4891492;29;20208;-71
2023/12/05 03:01:42;;;;;;;19.97;8.97;;;;;;;3.86;87.23;97540.97;4890927;29;20236;-70
2023/12/05 03:04:09;;;;;;;23.97;10.53;;;;;;;3.99;86.52;97537.41;4889533;29;20236;-71
2023/12/05 03:06:37;;;;;;;25.57;10.13;;;;;;;4.20;86.65;97542.28;4891367;29;20206;-70
2023/12/05 03:09:04;;;;;;;22.50;9.77;;;;;;;4.40;85.51;97534.31;4891066;29;20271;-71
2023/12/05 03:11:32;;;;;;;21.60;9.73;;;;;;;4.50;85.75;97543.56;4890714;29;20282;-72
2023/12/05 03:13:59;;;;;;;24.13;10.63;;;;;;;4.60;85.68;97543.44;4890946;29;20301;-73
2023/12/05 03:16:26;;;;;;;23.83;11.47;;;;;;;4.73;85.20;97536.41;4906178;29;20220;-73
2023/12/05 03:18:54;;;;;;;25.90;11.40;;;;;;;4.68;86.09;97538.16;4890996;29;20195;-74
2023/12/05 03:21:22;;;;;;;27.80;12.87;;;;;;;4.65;86.12;97535.66;4890894;29;20206;-72
2023/12/05 03:23:49;;;;;;;25.23;11.47;;;;;;;4.72;86.02;97529.56;4891322;29;20244;-74
2023/12/05 03:26:18;;;;;;;26.07;12.17;;;;;;;4.65;86.69;97520.28;4904886;29;20201;-74
2023/12/05 03:28:47;;;;;;;27.37;12.87;;;;;;;4.60;86.14;97522.91;4891396;29;20203;-73
2023/12/05 03:31:14;;;;;;;22.70;11.07;;;;;;;4.57;86.63;97520.41;4890325;29;20228;-73
2023/12/05 03:33:41;;;;;;;21.77;10.33;;;;;;;4.41;86.59;97508.66;4891485;29;20264;-71
2023/12/05 03:36:10;;;;;;;23.90;10.77;;;;;;;4.56;87.04;97526.38;4890957;29;20207;-76
2023/12/05 03:38:41;;;;;;;23.17;12.07;;;;;;;4.69;86.68;97516.78;4891140;29;20199;-74
2023/12/05 03:41:09;;;;;;;21.97;10.43;;;;;;;4.50;87.11;97510.25;4894453;29;20208;-75
2023/12/05 03:43:36;;;;;;;27.40;11.60;;;;;;;4.58;86.28;97516.09;4894339;29;20238;-74
2023/12/05 03:46:03;;;;;;;28.47;12.53;;;;;;;4.55;87.18;97511.88;4894542;29;20203;-74
2023/12/05 03:48:31;;;;;;;27.80;11.90;;;;;;;4.45;88.14;97515.44;4893601;29;20236;-75
2023/12/05 03:50:58;;;;;;;29.60;13.17;;;;;;;4.46;87.02;97512.00;4894582;29;20202;-72
2023/12/05 03:53:25;;;;;;;26.27;11.77;;;;;;;4.37;87.79;97490.78;4908186;29;20208;-74
2023/12/05 03:55:52;;;;;;;28.13;12.77;;;;;;;4.25;88.25;97503.75;4894477;29;20199;-74
2023/12/05 03:58:20;;;;;;;26.47;12.00;;;;;;;4.44;88.60;97508.63;4894125;29;20252;-73
2023/12/05 04:00:47;;;;;;;27.13;11.87;;;;;;;4.47;88.76;97490.59;4894915;29;20204;-70
2023/12/05 04:03:15;;;;;;;24.23;11.00;;;;;;;4.61;87.75;97509.22;4894364;29;20240;-73
2023/12/05 04:05:42;;;;;;;25.33;11.03;;;;;;;4.40;88.47;97508.69;4893336;29;20203;-70
2023/12/05 04:08:09;;;;;;;29.33;13.17;;;;;;;4.38;88.71;97511.28;4894228;29;20291;-73
2023/12/05 04:10:37;;;;;;;23.93;10.57;;;;;;;4.48;88.30;97517.09;4893628;29;20211;-74
2023/12/05 04:13:04;;;;;;;23.50;11.30;;;;;;;4.40;88.97;97506.97;4893879;29;20673;-72
2023/12/05 04:15:31;;;;;;;22.63;10.87;;;;;;;4.49;88.73;97514.50;4893645;29;20824;-72
2023/12/05 04:17:58;;;;;;;26.60;11.63;;;;;;;4.31;88.23;97455.00;4893764;29;20235;-75
2023/12/05 04:20:26;;;;;;;24.23;10.93;;;;;;;4.61;88.04;97511.78;4893860;29;20199;-73
2023/12/05 04:22:53;;;;;;;29.23;12.57;;;;;;;4.13;89.05;97490.25;4893731;29;20658;-72
2023/12/05 04:25:20;;;;;;;26.87;12.00;;;;;;;4.18;89.28;97518.41;4893921;29;20232;-70
2023/12/05 04:27:47;;;;;;;28.30;12.47;;;;;;;4.10;89.98;97503.09;4892952;29;20228;-70
2023/12/05 04:30:15;;;;;;;24.17;11.73;;;;;;;4.27;89.69;97508.00;4898992;29;20201;-72
2023/12/05 04:32:42;;;;;;;28.47;13.23;;;;;;;4.31;89.38;97513.94;4911948;29;20301;-73
2023/12/05 04:35:09;;;;;;;28.93;12.73;;;;;;;3.91;90.85;97477.75;4911986;29;20746;-71
2023/12/05 04:37:36;;;;;;;30.47;13.37;;;;;;;3.81;91.77;97519.72;4911097;29;20221;-70
2023/12/05 04:40:08;;;;;;;26.03;12.27;;;;;;;3.77;91.16;97457.41;4911688;29;20766;-73
2023/12/05 04:42:36;;;;;;;29.07;12.90;;;;;;;4.25;91.45;97517.44;4912102;29;20246;-70
2023/12/05 04:45:04;;;;;;;25.70;12.33;;;;;;;4.31;90.50;97519.91;4894308;29;20238;-70
2023/12/05 04:47:31;;;;;;;31.60;15.20;;;;;;;4.10;90.81;97484.34;4912181;29;20307;-71
2023/12/05 04:49:58;;;;;;;28.17;13.73;;;;;;;4.34;90.28;97525.00;4894712;29;20205;-73
2023/12/05 04:52:25;;;;;;;30.07;13.73;;;;;;;4.34;90.82;97524.16;4910952;29;20196;-70
2023/12/05 04:54:53;;;;;;;34.50;16.40;;;;;;;4.54;90.50;97520.44;4911811;29;20219;-70
2023/12/05 04:57:20;;;;;;;29.93;13.83;;;;;;;4.42;89.47;97515.47;4911946;29;20596;-70
2023/12/05 04:59:48;;;;;;;33.20;14.47;;;;;;;4.12;90.57;97508.22;4912018;29;20276;-70
2023/12/05 05:02:18;;;;;;;34.67;15.07;;;;;;;4.05;91.86;97516.84;4910758;29;20218;-74
2023/12/05 05:04:45;;;;;;;39.23;18.27;;;;;;;3.91;92.56;97477.75;4911812;29;20353;-74
2023/12/05 05:07:13;;;;;;;35.23;15.83;;;;;;;4.24;91.31;97523.44;4908286;29;20686;-74
2023/12/05 05:09:41;;;;;;;35.83;15.03;;;;;;;4.18;91.88;97520.94;4911657;29;20699;-71
2023/12/05 05:12:11;;;;;;;35.87;15.23;;;;;;;4.17;91.47;97488.50;4911227;29;20314;-71
2023/12/05 05:14:38;;;;;;;34.37;14.27;;;;;;;4.39;90.97;97518.06;4911377;29;20987;-70
2023/12/05 05:17:08;;;;;;;25.67;12.53;;;;;;;4.34;90.88;97506.19;4911738;29;20346;-74
2023/12/05 05:19:35;;;;;;;31.30;14.03;;;;;;;4.03;90.92;97455.38;4910747;29;20204;-70
2023/12/05 05:22:03;;;;;;;33.97;14.43;;;;;;;4.50;91.28;97512.81;4911740;29;20195;-74
2023/12/05 05:24:32;;;;;;;32.57;14.87;;;;;;;4.56;90.75;97521.25;4893988;29;20650;-73
2023/12/05 05:27:00;;;;;;;35.47;15.90;;;;;;;4.54;90.77;97525.56;4911303;29;20209;-72
2023/12/05 05:29:27;;;;;;;31.07;14.70;;;;;;;4.21;91.58;97477.31;4910993;29;20215;-72
2023/12/05 05:31:54;;;;;;;32.00;14.93;;;;;;;4.55;91.75;97522.16;4910907;29;20199;-76
2023/12/05 05:34:21;;;;;;;36.73;15.50;;;;;;;4.55;90.41;97511.03;4911259;29;20710;-70
2023/12/05 05:36:48;;;;;;;41.07;16.67;;;;;;;4.34;91.72;97499.38;4910215;29;20203;-72
2023/12/05 05:39:15;;;;;;;34.40;15.27;;;;;;;4.37;91.43;97512.13;4910956;29;20945;-73
2023/12/05 05:41:42;;;;;;;32.10;14.77;;;;;;;4.23;91.80;97506.34;4910161;29;20214;-74
2023/12/05 05:44:09;;;;;;;33.23;15.80;;;;;;;4.48;91.99;97512.84;4910924;29;20647;-72
2023/12/05 05:46:36;;;;;;;32.60;14.60;;;;;;;4.48;91.33;97517.97;4910690;29;20670;-76
2023/12/05 05:49:03;;;;;;;30.90;14.67;;;;;;;4.41;92.21;97513.78;4910805;29;20217;-75
2023/12/05 05:51:31;;;;;;;39.03;17.03;;;;;;;4.41;91.34;97521.47;4910894;29;20192;-73
2023/12/05 05:53:58;;;;;;;38.37;16.87;;;;;;;4.52;91.35;97499.09;4910991;29;20208;-72
2023/12/05 05:56:26;;;;;;;36.50;16.43;;;;;;;4.48;91.46;97487.19;4910461;29;20210;-71
2023/12/05 05:58:54;;;;;;;41.37;16.50;;;;;;;4.62;91.15;97494.66;4910281;29;20235;-72
2023/12/05 06:01:21;;;;;;;40.27;17.67;;;;;;;4.63;90.93;97497.22;4910455;29;20250;-71
2023/12/05 06:03:49;;;;;;;33.50;15.13;;;;;;;4.52;90.19;97463.19;4909817;29;20754;-72
2023/12/05 06:06:16;;;;;;;33.80;14.83;;;;;;;4.61;90.73;97504.09;4908696;29;20199;-70
2023/12/05 06:08:43;;;;;;;31.83;15.10;;;;;;;4.69;90.31;97479.19;4911107;29;20668;-69
2023/12/05 06:11:11;;;;;;;33.23;14.23;;;;;;;4.54;90.99;97489.66;4913503;29;20272;-73
2023/12/05 06:13:38;;;;;;;41.07;18.80;;;;;;;4.34;91.33;97483.97;4913059;29;20204;-71
2023/12/05 06:16:05;;;;;;;31.33;14.13;;;;;;;4.33;92.39;97474.59;4909884;29;20323;-72
2023/12/05 06:18:32;;;;;;;34.03;15.97;;;;;;;4.26;92.89;97467.00;4910672;29;20282;-71
2023/12/05 06:21:00;;;;;;;34.77;15.57;;;;;;;4.53;92.03;97487.13;4909958;29;20229;-71
2023/12/05 06:23:27;;;;;;;33.27;15.60;;;;;;;4.60;91.95;97487.00;4909978;29;20206;-71
2023/12/05 06:25:55;;;;;;;33.27;16.50;;;;;;;4.72;92.17;97496.22;4909916;29;20207;-72
2023/12/05 06:28:22;;;;;;;31.90;14.77;;;;;;;4.93;90.96;97491.59;4909969;29;20206;-70
2023/12/05 06:30:49;;;;;;;26.73;13.53;;;;;;;4.97;90.92;97494.13;4910655;29;20721;-72
2023/12/05 06:33:16;;;;;;;32.00;14.53;;;;;;;4.97;90.60;97494.97;4909445;29;20200;-71
2023/12/05 06:35:44;;;;;;;34.53;16.00;;;;;;;5.10;90.50;97493.03;4910337;29;20208;-70
2023/12/05 06:38:11;;;;;;;35.40;16.53;;;;;;;4.90;91.55;97499.34;4909681;29;20194;-71
2023/12/05 06:40:38;;;;;;;35.70;17.20;;;;;;;4.82;91.82;97501.19;4910297;29;20224;-70
2023/12/05 06:43:05;;;;;;;35.77;17.10;;;;;;;5.01;90.96;97485.50;4909976;29;20928;-71
2023/12/05 06:45:34;;;;;;;39.23;18.20;;;;;;;4.79;90.75;97456.78;4909932;29;20235;-70
2023/12/05 06:48:01;;;;;;;36.63;16.90;;;;;;;5.12;90.93;97493.84;4910014;29;20202;-70
2023/12/05 06:50:31;;;;;;;37.07;17.60;;;;;;;4.95;91.10;97469.31;4909885;29;20590;-72
2023/12/05 06:52:59;;;;;;;36.40;16.20;;;;;;;4.99;90.70;97451.31;4910659;29;20202;-72
2023/12/05 06:55:27;;;;;;;36.73;17.63;;;;;;;5.05;90.86;97469.19;4915536;29;20218;-74
2023/12/05 06:57:54;;;;;;;45.33;20.50;;;;;;;4.97;91.07;97448.75;4912247;29;20251;-73
2023/12/05 07:00:22;;;;;;;43.50;18.70;;;;;;;5.08;91.12;97458.84;4909945;29;20303;-73
2023/12/05 07:02:50;;;;;;;43.23;18.30;;;;;;;4.97;89.83;97431.66;4909333;29;20236;-70
2023/12/05 07:05:17;;;;;;;37.83;17.77;;;;;;;5.13;90.39;97480.97;4909606;29;20254;-74
2023/12/05 07:07:44;;;;;;;40.77;17.93;;;;;;;4.93;91.06;97445.41;4876854;29;20645;-73
2023/12/05 07:10:11;;;;;;;39.13;18.13;;;;;;;5.11;90.36;97469.06;4910392;29;20199;-73
2023/12/05 07:12:40;;;;;;;37.83;17.20;;;;;;;5.04;91.26;97481.16;4909123;29;20235;-74
2023/12/05 07:15:10;;;;;;;36.83;17.73;;;;;;;5.04;90.89;97477.75;4911673;29;20297;-72
2023/12/05 07:17:37;;;;;;;39.77;17.50;;;;;;;5.02;91.15;97476.91;4912985;29;20635;-72
2023/12/05 07:20:06;;;;;;;36.50;16.90;;;;;;;4.99;91.56;97470.13;4913499;29;20623;-71
2023/12/05 07:22:35;;;;;;;31.23;15.17;;;;;;;5.01;91.40;97478.63;4913367;29;20204;-74
2023/12/05 07:25:04;;;;;;;37.83;14.93;;;;;;;4.88;91.68;97467.72;4913048;29;20322;-75
2023/12/05 07:27:31;;;;;;;39.07;17.13;;;;;;;5.00;91.67;97476.97;4914428;29;20201;-72
2023/12/05 07:29:58;;;;;;;40.20;17.57;;;;;;;4.97;91.24;97491.56;4912645;29;20200;-74
2023/12/05 07:32:25;;;;;;;38.20;20.70;;;;;;;5.00;91.79;97487.22;4913421;29;20242;-72
2023/12/05 07:34:53;;;;;;;39.40;16.97;;;;;;;4.89;91.31;97472.00;4913699;29;20295;-75
2023/12/05 07:37:20;;;;;;;40.30;16.10;;;;;;;4.86;91.06;97492.56;4919070;29;20232;-74
2023/12/05 07:39:47;;;;;;;27.90;14.33;;;;;;;5.03;91.66;97486.31;4917059;29;20207;-74
2023/12/05 07:42:15;;;;;;;32.30;13.47;;;;;;;4.92;91.43;97494.19;4912623;29;20565;-73
2023/12/05 07:44:42;;;;;;;25.37;12.30;;;;;;;5.07;91.79;97487.97;4913799;29;20218;-74
2023/12/05 07:47:11;;;;;;;36.90;14.90;;;;;;;5.07;91.45;97490.53;4912293;29;20199;-75
2023/12/05 07:49:43;;;;;;;36.07;15.40;;;;;;;5.08;91.18;97481.94;4913264;29;20216;-73
2023/12/05 07:52:11;;;;;;;34.63;15.27;;;;;;;5.24;90.92;97489.34;4912416;29;20210;-74
2023/12/05 07:54:38;;;;;;;40.67;17.70;;;;;;;5.14;90.05;97476.72;4895456;29;20218;-72
2023/12/05 07:57:07;;;;;;;41.10;19.23;;;;;;;4.92;91.42;97445.44;4912465;29;20192;-71
2023/12/05 07:59:35;;;;;;;37.20;17.07;;;;;;;4.97;90.92;97456.47;4894752;29;20228;-75
2023/12/05 08:02:02;;;;;;;32.80;14.50;;;;;;;4.95;91.77;97474.47;4912151;29;20238;-71
2023/12/05 08:04:31;;;;;;;29.63;13.10;;;;;;;4.53;91.61;97436.69;4911562;29;20679;-75
2023/12/05 08:06:59;;;;;;;30.37;14.33;;;;;;;4.90;90.97;97483.94;4912371;29;20203;-71
2023/12/05 08:09:26;;;;;;;35.63;14.10;;;;;;;4.62;91.57;97428.84;4911634;29;20659;-72
2023/12/05 08:11:53;;;;;;;30.83;13.60;;;;;;;5.03;91.07;97476.06;4894675;29;20259;-75
2023/12/05 08:14:20;;;;;;;34.33;15.57;;;;;;;5.02;90.83;97464.94;4911944;29;20691;-73
2023/12/05 08:16:47;;;;;;;32.80;14.17;;;;;;;5.03;90.83;97469.19;4895497;29;20547;-70
2023/12/05 08:19:14;;;;;;;29.63;12.73;;;;;;;4.89;92.03;97458.31;4896513;29;20582;-74
2023/12/05 08:21:41;;;;;;;31.70;13.13;;;;;;;4.93;91.32;97459.94;4913068;29;20237;-71
2023/12/05 08:24:09;;;;;;;32.30;13.67;;;;;;;4.69;91.83;97430.44;4912236;29;20228;-71
2023/12/05 08:26:36;;;;;;;34.90;14.23;;;;;;;5.03;92.47;97461.50;4911042;29;20194;-73
2023/12/05 08:29:03;;;;;;;26.23;12.73;;;;;;;5.02;91.11;97451.25;4911833;29;20235;-70
2023/12/05 08:31:31;;;;;;;27.40;12.53;;;;;;;5.03;92.10;97452.97;4911773;29;20601;-70
2023/12/05 08:33:58;;;;;;;27.23;13.63;;;;;;;5.20;92.25;97441.50;4911469;29;20308;-71
2023/12/05 08:36:26;;;;;;;27.27;12.03;;;;;;;5.34;91.95;97441.25;4911701;29;20604;-69
2023/12/05 08:38:53;;;;;;;28.43;12.27;;;;;;;5.28;90.97;97436.22;4910473;29;20218;-70
2023/12/05 08:41:21;;;;;;;28.07;12.27;;;;;;;5.42;90.79;97447.09;4911734;29;20245;-70
2023/12/05 08:43:48;;;;;;;29.80;13.07;;;;;;;5.22;91.01;97431.19;4893454;29;20239;-74
2023/12/05 08:46:16;;;;;;;29.87;13.37;;;;;;;5.29;90.67;97396.84;4894613;29;20207;-71
2023/12/05 08:48:43;;;;;;;22.37;10.60;;;;;;;5.50;89.51;97437.53;4911579;29;20716;-71
2023/12/05 08:51:10;;;;;;;28.87;12.40;;;;;;;5.59;89.87;97437.31;4894296;29;20253;-73
2023/12/05 08:53:40;;;;;;;24.10;12.10;;;;;;;5.64;90.13;97404.69;4911842;29;20191;-74
2023/12/05 08:56:07;;;;;;;31.23;15.03;;;;;;;5.71;88.62;97408.81;4894245;29;20278;-73
2023/12/05 08:58:36;;;;;;;24.80;11.80;;;;;;;5.51;89.89;97395.53;4912216;29;20291;-72
2023/12/05 09:01:03;;;;;;;31.30;14.33;;;;;;;5.75;90.30;97416.44;4914093;29;20663;-74
2023/12/05 09:03:31;;;;;;;31.33;13.83;;;;;;;5.89;88.83;97405.91;4915533;29;20200;-74
2023/12/05 09:05:58;;;;;;;25.27;12.47;;;;;;;5.86;89.51;97411.09;4910951;29;20233;-75
2023/12/05 09:08:25;;;;;;;42.80;17.13;;;;;;;5.78;89.35;97402.69;4910610;29;20207;-73
2023/12/05 09:10:55;;;;;;;29.07;14.63;;;;;;;5.84;89.70;97405.16;4911130;29;20280;-70
2023/12/05 09:13:22;;;;;;;40.03;17.30;;;;;;;5.85;89.04;97412.00;4909142;29;20244;-74
2023/12/05 09:15:49;;;;;;;31.73;15.77;;;;;;;5.88;89.05;97404.22;4911489;29;20200;-72
2023/12/05 09:18:17;;;;;;;36.47;16.77;;;;;;;5.93;88.92;97394.69;4910261;29;20235;-70
2023/12/05 09:20:44;;;;;;;39.03;18.60;;;;;;;5.93;89.68;97406.69;4911407;29;20214;-71
2023/12/05 09:23:11;;;;;;;41.70;19.73;;;;;;;5.97;90.55;97401.44;4909150;29;20608;-71
2023/12/05 09:25:38;;;;;;;43.00;21.03;;;;;;;6.03;90.49;97392.75;4910679;29;20381;-74
2023/12/05 09:28:05;;;;;;;47.67;22.30;;;;;;;6.20;89.67;97399.19;4910244;29;20568;-71
2023/12/05 09:30:32;;;;;;;55.10;25.17;;;;;;;6.01;89.39;97399.66;4910604;29;20641;-72
2023/12/05 09:33:00;;;;;;;52.33;23.73;;;;;;;5.59;88.65;97339.72;4910552;29;20732;-75
2023/12/05 09:35:27;;;;;;;52.23;23.30;;;;;;;5.88;89.11;97391.34;4910456;29;20203;-72
2023/12/05 09:37:54;;;;;;;60.67;28.07;;;;;;;5.68;90.61;97342.09;4911094;29;20256;-72
2023/12/05 09:40:21;;;;;;;53.27;23.60;;;;;;;5.98;89.25;97368.84;4911840;29;20237;-70
2023/12/05 09:42:48;;;;;;;46.20;20.97;;;;;;;5.93;89.60;97373.28;4912809;29;20224;-73
2023/12/05 09:45:17;;;;;;;39.90;18.90;;;;;;;5.28;90.49;97354.06;4914138;29;20229;-71
2023/12/05 09:47:52;;;;;;;51.43;22.97;;;;;;;5.70;90.84;97363.47;4912784;29;20205;-73
2023/12/05 09:50:20;;;;;;;53.63;24.37;;;;;;;5.74;89.25;97354.81;4909442;29;20201;-75
2023/12/05 09:52:48;;;;;;;54.77;23.83;;;;;;;5.67;89.58;97350.66;4909498;29;20220;-73
2023/12/05 09:55:16;;;;;;;57.47;24.00;;;;;;;5.53;90.65;97337.28;4911052;29;20203;-71
2023/12/05 09:57:47;;;;;;;64.10;27.63;;;;;;;5.28;92.30;97326.69;4893019;29;20208;-72
2023/12/05 10:00:15;;;;;;;51.37;21.50;;;;;;;5.13;92.76;97313.31;4877864;29;20202;-73
2023/12/05 10:02:46;;;;;;;40.03;18.27;;;;;;;5.36;93.69;97329.94;4910139;29;20336;-71
2023/12/05 10:05:15;;;;;;;41.53;18.83;;;;;;;5.46;92.51;97333.16;4910045;29;20453;-69
2023/12/05 10:07:46;;;;;;;41.70;18.63;;;;;;;5.39;93.19;97309.34;4910159;29;20200;-72
2023/12/05 10:10:14;;;;;;;39.57;15.43;;;;;;;5.55;92.07;97322.69;4909053;29;20222;-70
2023/12/05 10:12:41;;;;;;;33.07;15.00;;;;;;;5.55;92.27;97309.84;4910361;29;20211;-73
2023/12/05 10:15:09;;;;;;;44.33;17.90;;;;;;;5.44;91.60;97298.97;4909341;29;20668;-73
2023/12/05 10:17:36;;;;;;;43.43;16.87;;;;;;;5.44;93.04;97296.41;4909596;29;20197;-70
2023/12/05 10:20:04;;;;;;;31.20;16.47;;;;;;;5.64;92.33;97302.78;4910066;29;20283;-70
2023/12/05 10:22:33;;;;;;;50.40;20.90;;;;;;;5.29;92.92;97292.44;4909730;29;20208;-71
2023/12/05 10:25:00;;;;;;;53.97;24.27;;;;;;;4.92;94.35;97288.94;4912239;29;20235;-69
2023/12/05 10:27:29;;;;;;;50.23;22.63;;;;;;;5.16;94.74;97279.88;4913290;29;20312;-70
2023/12/05 10:29:56;;;;;;;48.07;20.37;;;;;;;5.52;93.76;97281.66;4910559;29;20189;-69
2023/12/05 10:32:29;;;;;;;42.97;20.77;;;;;;;5.51;93.77;97272.25;4909258;29;20257;-69
2023/12/05 10:34:57;;;;;;;49.90;22.63;;;;;;;5.70;92.65;97260.69;4907919;29;20188;-70
2023/12/05 10:37:28;;;;;;;47.07;21.47;;;;;;;5.71;91.32;97275.22;4909524;29;20213;-70
2023/12/05 10:40:00;;;;;;;54.97;24.87;;;;;;;5.74;90.92;97277.72;4908949;29;20330;-70
2023/12/05 10:42:30;;;;;;;52.97;24.37;;;;;;;5.73;91.54;97260.59;4909641;29;20668;-75
2023/12/05 10:45:04;;;;;;;51.47;22.83;;;;;;;5.58;92.11;97240.44;4908458;29;20968;-73
2023/12/05 10:47:34;;;;;;;49.63;22.70;;;;;;;5.77;91.28;97246.81;4909453;29;20329;-75
2023/12/05 10:50:03;;;;;;;52.50;23.07;;;;;;;6.03;92.10;97246.22;4910743;29;20567;-71
2023/12/05 10:52:33;;;;;;;43.07;20.90;;;;;;;6.05;90.95;97254.75;4896568;29;20272;-74
2023/12/05 10:55:00;;;;;;;42.93;19.57;;;;;;;6.00;90.17;97229.16;4912948;29;20301;-71
2023/12/05 10:57:33;;;;;;;39.07;19.17;;;;;;;5.78;90.24;97197.13;4913010;29;20278;-72
2023/12/05 11:00:05;;;;;;;41.60;18.97;;;;;;;6.10;90.27;97237.50;4913890;29;20215;-71
2023/12/05 11:02:36;;;;;;;47.67;21.53;;;;;;;6.10;90.97;97238.31;4912660;29;20650;-72
2023/12/05 11:05:04;;;;;;;46.60;19.80;;;;;;;6.24;90.43;97233.69;4913472;29;20239;-70
2023/12/05 11:07:31;;;;;;;46.93;21.43;;;;;;;6.21;90.76;97214.91;4918157;29;20282;-70
2023/12/05 11:10:01;;;;;;;47.60;23.13;;;;;;;6.17;90.74;97231.31;4916439;29;20889;-74
2023/12/05 11:12:30;;;;;;;38.40;17.90;;;;;;;5.94;92.01;97218.16;4913648;29;20292;-72
2023/12/05 11:15:00;;;;;;;38.10;19.33;;;;;;;6.12;90.43;97226.28;4912550;29;20197;-72
2023/12/05 11:17:44;;;;;;;44.40;22.17;;;;;;;5.88;92.02;97197.75;4913403;29;20570;-72
2023/12/05 11:20:30;;;;;;;48.93;22.03;;;;;;;5.94;91.03;97224.16;4913043;29;20204;-70
2023/12/05 11:23:22;;;;;;;44.47;19.80;;;;;;;5.98;89.96;97206.94;4912948;29;20307;-72
2023/12/05 11:25:58;;;;;;;40.97;18.63;;;;;;;6.11;91.01;97216.03;4913279;29;20239;-72
2023/12/05 11:28:37;;;;;;;47.57;19.50;;;;;;;6.14;91.23;97221.94;4912431;29;21061;-69
2023/12/05 11:31:23;;;;;;;40.83;18.03;;;;;;;6.13;90.92;97207.41;4913139;29;20200;-71
2023/12/05 11:34:14;;;;;;;33.17;15.93;;;;;;;5.85;91.51;97209.00;4912998;29;20203;-70